sensor_id;sensor_type;location;lat;lon;timestamp;temperature;humidity
12370;DHT22;6249;52.128;9.986;2022-11-20T00:00:16;-2.20;99.90
12370;DHT22;6249;52.128;9.986;2022-11-20T00:03:40;-2.10;99.90
12370;DHT22;6249;52.128;9.986;2022-11-20T00:07:03;-2.20;99.90
12370;DHT22;6249;52.128;9.986;2022-11-20T00:10:28;-2.30;99.90
12370;DHT22;6249;52.128;9.986;2022-11-20T00:13:52;-2.40;99.90
12370;DHT22;6249;52.128;9.986;2022-11-20T00:17:13;-2.50;99.90
12370;DHT22;6249;52.128;9.986;2022-11-20T00:20:33;-2.60;99.90
12370;DHT22;6249;52.128;9.986;2022-11-20T00:23:56;-2.60;99.90
12370;DHT22;6249;52.128;9.986;2022-11-20T00:27:16;-2.60;99.90
12370;DHT22;6249;52.128;9.986;2022-11-20T00:30:40;-2.50;99.90
12370;DHT22;6249;52.128;9.986;2022-11-20T00:34:00;-2.60;99.90
12370;DHT22;6249;52.128;9.986;2022-11-20T00:37:23;-2.60;99.90
12370;DHT22;6249;52.128;9.986;2022-11-20T00:40:44;-2.60;99.90
12370;DHT22;6249;52.128;9.986;2022-11-20T00:44:06;-2.60;99.90
12370;DHT22;6249;52.128;9.986;2022-11-20T00:47:27;-2.60;99.90
12370;DHT22;6249;52.128;9.986;2022-11-20T00:50:48;-2.70;99.90
12370;DHT22;6249;52.128;9.986;2022-11-20T00:54:11;-2.70;99.90
12370;DHT22;6249;52.128;9.986;2022-11-20T00:57:31;-2.80;99.90
12370;DHT22;6249;52.128;9.986;2022-11-20T01:01:00;-2.80;99.90
12370;DHT22;6249;52.128;9.986;2022-11-20T01:04:24;-2.80;99.90
12370;DHT22;6249;52.128;9.986;2022-11-20T01:07:44;-2.80;99.90
12370;DHT22;6249;52.128;9.986;2022-11-20T01:11:10;-2.90;99.90
12370;DHT22;6249;52.128;9.986;2022-11-20T01:14:31;-3.00;99.90
12370;DHT22;6249;52.128;9.986;2022-11-20T01:17:52;-2.80;99.90
12370;DHT22;6249;52.128;9.986;2022-11-20T01:21:23;-2.90;99.90
12370;DHT22;6249;52.128;9.986;2022-11-20T01:24:46;-2.90;99.90
12370;DHT22;6249;52.128;9.986;2022-11-20T01:28:09;-2.90;99.90
12370;DHT22;6249;52.128;9.986;2022-11-20T01:31:33;-2.90;99.90
12370;DHT22;6249;52.128;9.986;2022-11-20T01:34:54;-2.90;99.90
12370;DHT22;6249;52.128;9.986;2022-11-20T01:38:15;-2.90;99.90
12370;DHT22;6249;52.128;9.986;2022-11-20T01:41:40;-2.80;99.90
12370;DHT22;6249;52.128;9.986;2022-11-20T01:49:25;-2.80;99.90
12370;DHT22;6249;52.128;9.986;2022-11-20T01:52:55;-2.80;99.90
12370;DHT22;6249;52.128;9.986;2022-11-20T01:56:17;-2.90;99.90
12370;DHT22;6249;52.128;9.986;2022-11-20T01:59:44;-2.90;99.90
12370;DHT22;6249;52.128;9.986;2022-11-20T02:03:15;-3.00;99.90
12370;DHT22;6249;52.128;9.986;2022-11-20T02:06:46;-3.10;99.90
12370;DHT22;6249;52.128;9.986;2022-11-20T02:10:07;-3.10;99.90
12370;DHT22;6249;52.128;9.986;2022-11-20T02:13:28;-3.00;99.90
12370;DHT22;6249;52.128;9.986;2022-11-20T02:17:06;-3.00;99.90
12370;DHT22;6249;52.128;9.986;2022-11-20T02:20:27;-3.10;99.90
12370;DHT22;6249;52.128;9.986;2022-11-20T02:24:01;-3.10;99.90
12370;DHT22;6249;52.128;9.986;2022-11-20T02:27:22;-3.10;99.90
12370;DHT22;6249;52.128;9.986;2022-11-20T02:30:47;-3.10;99.90
12370;DHT22;6249;52.128;9.986;2022-11-20T02:34:08;-3.00;99.90
12370;DHT22;6249;52.128;9.986;2022-11-20T02:37:37;-3.00;99.90
12370;DHT22;6249;52.128;9.986;2022-11-20T02:40:59;-3.00;99.90
12370;DHT22;6249;52.128;9.986;2022-11-20T02:44:20;-3.00;99.90
12370;DHT22;6249;52.128;9.986;2022-11-20T02:47:42;-3.10;99.90
12370;DHT22;6249;52.128;9.986;2022-11-20T02:51:03;-3.00;99.90
12370;DHT22;6249;52.128;9.986;2022-11-20T02:54:26;-3.10;99.90
12370;DHT22;6249;52.128;9.986;2022-11-20T02:57:47;-3.20;99.90
12370;DHT22;6249;52.128;9.986;2022-11-20T03:01:07;-3.20;99.90
12370;DHT22;6249;52.128;9.986;2022-11-20T03:04:30;-3.20;99.90
12370;DHT22;6249;52.128;9.986;2022-11-20T03:07:53;-3.10;99.90
12370;DHT22;6249;52.128;9.986;2022-11-20T03:11:16;-3.10;99.90
12370;DHT22;6249;52.128;9.986;2022-11-20T03:14:39;-3.10;99.90
12370;DHT22;6249;52.128;9.986;2022-11-20T03:18:03;-3.10;99.90
12370;DHT22;6249;52.128;9.986;2022-11-20T03:21:26;-3.10;99.90
12370;DHT22;6249;52.128;9.986;2022-11-20T03:24:47;-3.20;99.90
12370;DHT22;6249;52.128;9.986;2022-11-20T03:28:07;-3.10;99.90
12370;DHT22;6249;52.128;9.986;2022-11-20T03:31:30;-3.20;99.90
12370;DHT22;6249;52.128;9.986;2022-11-20T03:34:51;-3.10;99.90
12370;DHT22;6249;52.128;9.986;2022-11-20T03:38:12;-3.10;99.90
12370;DHT22;6249;52.128;9.986;2022-11-20T03:41:39;-3.10;99.90
12370;DHT22;6249;52.128;9.986;2022-11-20T03:45:00;-3.20;99.90
12370;DHT22;6249;52.128;9.986;2022-11-20T03:48:25;-3.20;99.90
12370;DHT22;6249;52.128;9.986;2022-11-20T03:51:46;-3.30;99.90
12370;DHT22;6249;52.128;9.986;2022-11-20T03:55:07;-3.20;99.90
12370;DHT22;6249;52.128;9.986;2022-11-20T03:58:31;-3.20;99.90
12370;DHT22;6249;52.128;9.986;2022-11-20T04:01:52;-3.30;99.90
12370;DHT22;6249;52.128;9.986;2022-11-20T04:05:13;-3.40;99.90
12370;DHT22;6249;52.128;9.986;2022-11-20T04:08:36;-3.30;99.90
12370;DHT22;6249;52.128;9.986;2022-11-20T04:11:59;-3.20;99.90
12370;DHT22;6249;52.128;9.986;2022-11-20T04:15:19;-3.30;99.90
12370;DHT22;6249;52.128;9.986;2022-11-20T04:18:42;-3.30;99.90
12370;DHT22;6249;52.128;9.986;2022-11-20T04:22:07;-3.40;99.90
12370;DHT22;6249;52.128;9.986;2022-11-20T04:25:31;-3.30;99.90
12370;DHT22;6249;52.128;9.986;2022-11-20T04:28:52;-3.30;99.90
12370;DHT22;6249;52.128;9.986;2022-11-20T04:32:13;-3.30;99.90
12370;DHT22;6249;52.128;9.986;2022-11-20T04:35:34;-3.30;99.90
12370;DHT22;6249;52.128;9.986;2022-11-20T04:39:00;-3.30;99.90
12370;DHT22;6249;52.128;9.986;2022-11-20T04:42:24;-3.40;99.90
12370;DHT22;6249;52.128;9.986;2022-11-20T04:45:54;-3.40;99.90
12370;DHT22;6249;52.128;9.986;2022-11-20T04:49:15;-3.40;99.90
12370;DHT22;6249;52.128;9.986;2022-11-20T04:52:36;-3.40;99.90
12370;DHT22;6249;52.128;9.986;2022-11-20T04:56:04;-3.30;99.90
12370;DHT22;6249;52.128;9.986;2022-11-20T04:59:25;-3.30;99.90
12370;DHT22;6249;52.128;9.986;2022-11-20T05:02:48;-3.40;99.90
12370;DHT22;6249;52.128;9.986;2022-11-20T05:06:10;-3.40;99.90
12370;DHT22;6249;52.128;9.986;2022-11-20T05:09:31;-3.40;99.90
12370;DHT22;6249;52.128;9.986;2022-11-20T05:12:54;-3.40;99.90
12370;DHT22;6249;52.128;9.986;2022-11-20T05:16:17;-3.40;99.90
12370;DHT22;6249;52.128;9.986;2022-11-20T05:19:38;-3.30;99.90
12370;DHT22;6249;52.128;9.986;2022-11-20T05:22:59;-3.20;99.90
12370;DHT22;6249;52.128;9.986;2022-11-20T05:26:24;-3.20;99.90
12370;DHT22;6249;52.128;9.986;2022-11-20T05:29:45;-3.20;99.90
12370;DHT22;6249;52.128;9.986;2022-11-20T05:33:08;-3.20;99.90
12370;DHT22;6249;52.128;9.986;2022-11-20T05:36:31;-3.30;99.90
12370;DHT22;6249;52.128;9.986;2022-11-20T05:39:54;-3.40;99.90
12370;DHT22;6249;52.128;9.986;2022-11-20T05:43:15;-3.40;99.90
12370;DHT22;6249;52.128;9.986;2022-11-20T05:46:35;-3.40;99.90
12370;DHT22;6249;52.128;9.986;2022-11-20T05:49:56;-3.40;99.90
12370;DHT22;6249;52.128;9.986;2022-11-20T05:53:21;-3.30;99.90
12370;DHT22;6249;52.128;9.986;2022-11-20T05:56:41;-3.30;99.90
12370;DHT22;6249;52.128;9.986;2022-11-20T06:00:03;-3.30;99.90
12370;DHT22;6249;52.128;9.986;2022-11-20T06:03:24;-3.40;99.90
12370;DHT22;6249;52.128;9.986;2022-11-20T06:06:49;-3.40;99.90
12370;DHT22;6249;52.128;9.986;2022-11-20T06:10:10;-3.40;99.90
12370;DHT22;6249;52.128;9.986;2022-11-20T06:13:31;-3.30;99.90
12370;DHT22;6249;52.128;9.986;2022-11-20T06:16:52;-3.30;99.90
12370;DHT22;6249;52.128;9.986;2022-11-20T06:20:13;-3.30;99.90
12370;DHT22;6249;52.128;9.986;2022-11-20T06:23:34;-3.40;99.90
12370;DHT22;6249;52.128;9.986;2022-11-20T06:26:57;-3.30;99.90
12370;DHT22;6249;52.128;9.986;2022-11-20T06:30:20;-3.20;99.90
12370;DHT22;6249;52.128;9.986;2022-11-20T06:33:41;-3.20;99.90
12370;DHT22;6249;52.128;9.986;2022-11-20T06:37:02;-3.20;99.90
12370;DHT22;6249;52.128;9.986;2022-11-20T06:40:23;-3.10;99.90
12370;DHT22;6249;52.128;9.986;2022-11-20T06:43:43;-3.00;99.90
12370;DHT22;6249;52.128;9.986;2022-11-20T06:47:04;-2.90;99.90
12370;DHT22;6249;52.128;9.986;2022-11-20T06:50:25;-2.80;99.90
12370;DHT22;6249;52.128;9.986;2022-11-20T06:53:45;-2.80;99.90
12370;DHT22;6249;52.128;9.986;2022-11-20T06:57:08;-2.90;99.90
12370;DHT22;6249;52.128;9.986;2022-11-20T07:00:31;-2.90;99.90
12370;DHT22;6249;52.128;9.986;2022-11-20T07:03:52;-2.80;99.90
12370;DHT22;6249;52.128;9.986;2022-11-20T07:07:15;-2.70;99.90
12370;DHT22;6249;52.128;9.986;2022-11-20T07:10:36;-2.50;99.90
12370;DHT22;6249;52.128;9.986;2022-11-20T07:13:59;-2.40;99.90
12370;DHT22;6249;52.128;9.986;2022-11-20T07:17:19;-2.30;99.90
12370;DHT22;6249;52.128;9.986;2022-11-20T07:20:42;-2.30;99.90
12370;DHT22;6249;52.128;9.986;2022-11-20T07:24:05;-2.30;99.90
12370;DHT22;6249;52.128;9.986;2022-11-20T07:27:29;-2.10;99.90
12370;DHT22;6249;52.128;9.986;2022-11-20T07:30:51;-2.00;99.90
12370;DHT22;6249;52.128;9.986;2022-11-20T07:34:13;-1.90;99.90
12370;DHT22;6249;52.128;9.986;2022-11-20T07:37:35;-1.80;99.90
12370;DHT22;6249;52.128;9.986;2022-11-20T07:40:56;-1.60;99.90
12370;DHT22;6249;52.128;9.986;2022-11-20T07:44:17;-1.60;99.90
12370;DHT22;6249;52.128;9.986;2022-11-20T07:47:38;-1.60;99.90
12370;DHT22;6249;52.128;9.986;2022-11-20T07:51:01;-1.70;99.90
12370;DHT22;6249;52.128;9.986;2022-11-20T07:54:22;-1.60;99.90
12370;DHT22;6249;52.128;9.986;2022-11-20T07:57:42;-1.60;99.90
12370;DHT22;6249;52.128;9.986;2022-11-20T08:01:07;-1.50;99.90
12370;DHT22;6249;52.128;9.986;2022-11-20T08:04:27;-1.50;99.90
12370;DHT22;6249;52.128;9.986;2022-11-20T08:07:48;-1.50;99.90
12370;DHT22;6249;52.128;9.986;2022-11-20T08:11:09;-1.30;99.90
12370;DHT22;6249;52.128;9.986;2022-11-20T08:14:48;-1.40;99.90
12370;DHT22;6249;52.128;9.986;2022-11-20T08:18:12;-1.40;99.90
12370;DHT22;6249;52.128;9.986;2022-11-20T08:21:33;-1.30;99.90
12370;DHT22;6249;52.128;9.986;2022-11-20T08:24:53;-1.30;99.90
12370;DHT22;6249;52.128;9.986;2022-11-20T08:28:14;-1.30;99.90
12370;DHT22;6249;52.128;9.986;2022-11-20T08:31:35;-1.20;99.90
12370;DHT22;6249;52.128;9.986;2022-11-20T08:34:55;-1.10;99.90
12370;DHT22;6249;52.128;9.986;2022-11-20T08:38:16;-1.00;99.90
12370;DHT22;6249;52.128;9.986;2022-11-20T08:41:37;-0.90;99.90
12370;DHT22;6249;52.128;9.986;2022-11-20T08:44:57;-0.80;99.90
12370;DHT22;6249;52.128;9.986;2022-11-20T08:48:18;-0.70;99.90
12370;DHT22;6249;52.128;9.986;2022-11-20T08:51:41;-0.70;99.90
12370;DHT22;6249;52.128;9.986;2022-11-20T08:55:05;-0.80;99.90
12370;DHT22;6249;52.128;9.986;2022-11-20T08:58:26;-0.80;99.90
12370;DHT22;6249;52.128;9.986;2022-11-20T09:01:49;-0.70;99.90
12370;DHT22;6249;52.128;9.986;2022-11-20T09:05:10;-0.80;99.90
12370;DHT22;6249;52.128;9.986;2022-11-20T09:08:33;-0.90;99.90
12370;DHT22;6249;52.128;9.986;2022-11-20T09:11:55;-0.90;99.90
12370;DHT22;6249;52.128;9.986;2022-11-20T09:15:16;-0.90;99.90
12370;DHT22;6249;52.128;9.986;2022-11-20T09:18:39;-0.80;99.90
12370;DHT22;6249;52.128;9.986;2022-11-20T09:22:01;-0.70;99.90
12370;DHT22;6249;52.128;9.986;2022-11-20T09:25:24;-0.80;99.90
12370;DHT22;6249;52.128;9.986;2022-11-20T09:28:45;-0.70;99.90
12370;DHT22;6249;52.128;9.986;2022-11-20T09:32:06;-0.80;99.90
12370;DHT22;6249;52.128;9.986;2022-11-20T09:35:29;-0.80;99.90
12370;DHT22;6249;52.128;9.986;2022-11-20T09:38:49;-0.60;99.90
12370;DHT22;6249;52.128;9.986;2022-11-20T09:49:36;-0.10;99.90
12370;DHT22;6249;52.128;9.986;2022-11-20T09:56:50;-0.20;99.90
12370;DHT22;6249;52.128;9.986;2022-11-20T10:00:14;-0.10;99.90
12370;DHT22;6249;52.128;9.986;2022-11-20T10:07:24;0.00;99.90
12370;DHT22;6249;52.128;9.986;2022-11-20T10:10:54;0.10;99.90
12370;DHT22;6249;52.128;9.986;2022-11-20T10:14:33;0.20;99.90
12370;DHT22;6249;52.128;9.986;2022-11-20T10:29:45;1.60;99.90
12370;DHT22;6249;52.128;9.986;2022-11-20T10:33:15;2.60;99.90
12370;DHT22;6249;52.128;9.986;2022-11-20T10:36:43;3.70;99.90
12370;DHT22;6249;52.128;9.986;2022-11-20T10:40:22;4.90;99.90
12370;DHT22;6249;52.128;9.986;2022-11-20T10:43:49;5.70;99.90
12370;DHT22;6249;52.128;9.986;2022-11-20T10:47:20;6.70;98.70
12370;DHT22;6249;52.128;9.986;2022-11-20T10:50:55;7.30;95.50
12370;DHT22;6249;52.128;9.986;2022-11-20T10:54:31;7.80;95.00
12370;DHT22;6249;52.128;9.986;2022-11-20T10:58:20;7.70;91.90
12370;DHT22;6249;52.128;9.986;2022-11-20T11:01:43;7.50;92.90
12370;DHT22;6249;52.128;9.986;2022-11-20T11:09:04;6.50;94.00
12370;DHT22;6249;52.128;9.986;2022-11-20T11:12:28;6.00;94.90
12370;DHT22;6249;52.128;9.986;2022-11-20T11:15:49;5.50;95.90
12370;DHT22;6249;52.128;9.986;2022-11-20T11:19:13;5.30;95.60
12370;DHT22;6249;52.128;9.986;2022-11-20T11:22:43;4.70;97.20
12370;DHT22;6249;52.128;9.986;2022-11-20T11:26:18;4.60;97.60
12370;DHT22;6249;52.128;9.986;2022-11-20T11:29:39;4.60;97.70
12370;DHT22;6249;52.128;9.986;2022-11-20T11:33:10;4.20;98.80
12370;DHT22;6249;52.128;9.986;2022-11-20T11:36:32;4.20;98.10
12370;DHT22;6249;52.128;9.986;2022-11-20T11:39:58;4.30;98.80
12370;DHT22;6249;52.128;9.986;2022-11-20T11:43:25;4.10;98.20
12370;DHT22;6249;52.128;9.986;2022-11-20T11:47:16;3.90;99.20
12370;DHT22;6249;52.128;9.986;2022-11-20T11:50:48;3.80;99.80
12370;DHT22;6249;52.128;9.986;2022-11-20T11:54:26;4.00;99.10
12370;DHT22;6249;52.128;9.986;2022-11-20T12:01:45;5.20;98.10
12370;DHT22;6249;52.128;9.986;2022-11-20T12:05:29;7.20;95.50
12370;DHT22;6249;52.128;9.986;2022-11-20T12:08:59;8.00;92.50
12370;DHT22;6249;52.128;9.986;2022-11-20T12:12:45;7.90;91.70
12370;DHT22;6249;52.128;9.986;2022-11-20T12:16:12;7.80;91.60
12370;DHT22;6249;52.128;9.986;2022-11-20T12:19:34;8.30;90.70
12370;DHT22;6249;52.128;9.986;2022-11-20T12:23:02;8.80;90.40
12370;DHT22;6249;52.128;9.986;2022-11-20T12:26:45;10.00;90.10
12370;DHT22;6249;52.128;9.986;2022-11-20T12:30:10;12.10;82.10
12370;DHT22;6249;52.128;9.986;2022-11-20T12:33:51;12.30;75.90
12370;DHT22;6249;52.128;9.986;2022-11-20T12:40:46;11.60;80.00
12370;DHT22;6249;52.128;9.986;2022-11-20T12:56:27;9.50;86.50
12370;DHT22;6249;52.128;9.986;2022-11-20T13:06:32;12.20;78.10
12370;DHT22;6249;52.128;9.986;2022-11-20T13:09:56;12.50;74.70
12370;DHT22;6249;52.128;9.986;2022-11-20T13:20:33;9.70;82.10
12370;DHT22;6249;52.128;9.986;2022-11-20T13:24:07;9.60;84.70
12370;DHT22;6249;52.128;9.986;2022-11-20T13:27:30;9.30;85.20
12370;DHT22;6249;52.128;9.986;2022-11-20T13:30:53;8.30;89.10
12370;DHT22;6249;52.128;9.986;2022-11-20T13:34:24;7.60;90.70
12370;DHT22;6249;52.128;9.986;2022-11-20T13:37:58;7.30;92.10
12370;DHT22;6249;52.128;9.986;2022-11-20T13:41:32;7.10;92.60
12370;DHT22;6249;52.128;9.986;2022-11-20T13:44:55;6.80;93.20
12370;DHT22;6249;52.128;9.986;2022-11-20T13:48:22;6.50;94.60
12370;DHT22;6249;52.128;9.986;2022-11-20T13:51:44;6.30;94.70
12370;DHT22;6249;52.128;9.986;2022-11-20T13:55:31;7.10;94.10
12370;DHT22;6249;52.128;9.986;2022-11-20T13:59:05;8.20;92.10
12370;DHT22;6249;52.128;9.986;2022-11-20T14:02:30;9.10;90.70
12370;DHT22;6249;52.128;9.986;2022-11-20T14:05:55;9.80;88.00
12370;DHT22;6249;52.128;9.986;2022-11-20T14:09:30;10.20;84.40
12370;DHT22;6249;52.128;9.986;2022-11-20T14:12:54;10.70;83.50
12370;DHT22;6249;52.128;9.986;2022-11-20T14:16:20;10.90;80.30
12370;DHT22;6249;52.128;9.986;2022-11-20T14:19:44;10.70;78.70
12370;DHT22;6249;52.128;9.986;2022-11-20T14:23:10;10.90;80.20
12370;DHT22;6249;52.128;9.986;2022-11-20T14:26:33;11.10;78.90
12370;DHT22;6249;52.128;9.986;2022-11-20T14:29:56;10.80;80.70
12370;DHT22;6249;52.128;9.986;2022-11-20T14:33:21;11.20;79.10
12370;DHT22;6249;52.128;9.986;2022-11-20T14:36:45;11.20;79.20
12370;DHT22;6249;52.128;9.986;2022-11-20T14:44:08;10.70;80.50
12370;DHT22;6249;52.128;9.986;2022-11-20T14:47:29;9.60;83.40
12370;DHT22;6249;52.128;9.986;2022-11-20T14:50:56;8.70;87.70
12370;DHT22;6249;52.128;9.986;2022-11-20T14:54:19;7.90;90.00
12370;DHT22;6249;52.128;9.986;2022-11-20T14:57:44;6.90;92.30
12370;DHT22;6249;52.128;9.986;2022-11-20T15:01:26;6.50;94.40
12370;DHT22;6249;52.128;9.986;2022-11-20T15:04:56;6.30;94.90
12370;DHT22;6249;52.128;9.986;2022-11-20T15:08:17;6.00;97.40
12370;DHT22;6249;52.128;9.986;2022-11-20T15:11:55;5.70;98.70
12370;DHT22;6249;52.128;9.986;2022-11-20T15:15:31;5.30;99.90
12370;DHT22;6249;52.128;9.986;2022-11-20T15:18:58;4.80;99.90
12370;DHT22;6249;52.128;9.986;2022-11-20T15:22:23;4.40;99.90
12370;DHT22;6249;52.128;9.986;2022-11-20T15:25:44;3.90;99.90
12370;DHT22;6249;52.128;9.986;2022-11-20T15:29:08;3.30;99.90
12370;DHT22;6249;52.128;9.986;2022-11-20T15:32:29;3.20;99.90
12370;DHT22;6249;52.128;9.986;2022-11-20T15:35:53;3.00;99.90
12370;DHT22;6249;52.128;9.986;2022-11-20T15:39:13;3.00;99.90
12370;DHT22;6249;52.128;9.986;2022-11-20T15:42:39;3.00;99.90
12370;DHT22;6249;52.128;9.986;2022-11-20T15:46:28;2.70;99.90
12370;DHT22;6249;52.128;9.986;2022-11-20T15:49:49;2.60;99.90
12370;DHT22;6249;52.128;9.986;2022-11-20T15:53:13;2.30;99.90
12370;DHT22;6249;52.128;9.986;2022-11-20T15:56:36;2.10;99.90
12370;DHT22;6249;52.128;9.986;2022-11-20T15:59:57;2.10;99.90
12370;DHT22;6249;52.128;9.986;2022-11-20T16:03:20;2.10;99.90
12370;DHT22;6249;52.128;9.986;2022-11-20T16:06:44;2.10;99.90
12370;DHT22;6249;52.128;9.986;2022-11-20T16:10:05;2.20;99.90
12370;DHT22;6249;52.128;9.986;2022-11-20T16:13:25;2.10;99.90
12370;DHT22;6249;52.128;9.986;2022-11-20T16:17:04;2.10;99.90
12370;DHT22;6249;52.128;9.986;2022-11-20T16:20:27;1.90;99.90
12370;DHT22;6249;52.128;9.986;2022-11-20T16:23:48;1.90;99.90
12370;DHT22;6249;52.128;9.986;2022-11-20T16:27:08;1.90;99.90
12370;DHT22;6249;52.128;9.986;2022-11-20T16:30:32;2.00;99.90
12370;DHT22;6249;52.128;9.986;2022-11-20T16:33:57;1.90;99.90
12370;DHT22;6249;52.128;9.986;2022-11-20T16:37:18;1.80;99.90
12370;DHT22;6249;52.128;9.986;2022-11-20T16:40:39;1.70;99.90
12370;DHT22;6249;52.128;9.986;2022-11-20T16:44:01;1.70;99.90
12370;DHT22;6249;52.128;9.986;2022-11-20T16:47:22;1.70;99.90
12370;DHT22;6249;52.128;9.986;2022-11-20T16:50:52;1.60;99.90
12370;DHT22;6249;52.128;9.986;2022-11-20T16:54:15;1.60;99.90
12370;DHT22;6249;52.128;9.986;2022-11-20T16:57:36;1.60;99.90
12370;DHT22;6249;52.128;9.986;2022-11-20T17:00:57;1.60;99.90
12370;DHT22;6249;52.128;9.986;2022-11-20T17:04:26;1.50;99.90
12370;DHT22;6249;52.128;9.986;2022-11-20T17:07:49;1.50;99.90
12370;DHT22;6249;52.128;9.986;2022-11-20T17:11:13;1.40;99.90
12370;DHT22;6249;52.128;9.986;2022-11-20T17:14:34;1.40;99.90
12370;DHT22;6249;52.128;9.986;2022-11-20T17:17:55;1.50;99.90
12370;DHT22;6249;52.128;9.986;2022-11-20T17:21:18;1.40;99.90
12370;DHT22;6249;52.128;9.986;2022-11-20T17:24:39;1.30;99.90
12370;DHT22;6249;52.128;9.986;2022-11-20T17:28:02;1.20;99.90
12370;DHT22;6249;52.128;9.986;2022-11-20T17:31:26;1.10;99.90
12370;DHT22;6249;52.128;9.986;2022-11-20T17:34:49;1.10;99.90
12370;DHT22;6249;52.128;9.986;2022-11-20T17:38:12;1.10;99.90
12370;DHT22;6249;52.128;9.986;2022-11-20T17:41:35;0.90;99.90
12370;DHT22;6249;52.128;9.986;2022-11-20T17:44:56;1.00;99.90
12370;DHT22;6249;52.128;9.986;2022-11-20T17:48:18;1.10;99.90
12370;DHT22;6249;52.128;9.986;2022-11-20T17:51:39;1.00;99.90
12370;DHT22;6249;52.128;9.986;2022-11-20T17:55:03;2.00;99.90
12370;DHT22;6249;52.128;9.986;2022-11-20T17:58:27;1.10;99.90
12370;DHT22;6249;52.128;9.986;2022-11-20T18:01:50;1.20;99.90
12370;DHT22;6249;52.128;9.986;2022-11-20T18:05:14;1.30;99.90
12370;DHT22;6249;52.128;9.986;2022-11-20T18:08:34;1.30;99.90
12370;DHT22;6249;52.128;9.986;2022-11-20T18:11:55;1.30;99.90
12370;DHT22;6249;52.128;9.986;2022-11-20T18:15:16;1.40;99.90
12370;DHT22;6249;52.128;9.986;2022-11-20T18:18:36;1.40;99.90
12370;DHT22;6249;52.128;9.986;2022-11-20T18:21:57;1.40;99.90
12370;DHT22;6249;52.128;9.986;2022-11-20T18:25:19;1.40;99.90
12370;DHT22;6249;52.128;9.986;2022-11-20T18:28:40;1.40;99.90
12370;DHT22;6249;52.128;9.986;2022-11-20T18:32:00;1.40;99.90
12370;DHT22;6249;52.128;9.986;2022-11-20T18:35:21;1.30;99.90
12370;DHT22;6249;52.128;9.986;2022-11-20T18:38:43;1.40;99.90
12370;DHT22;6249;52.128;9.986;2022-11-20T18:42:14;1.60;99.90
12370;DHT22;6249;52.128;9.986;2022-11-20T18:46:01;1.60;99.90
12370;DHT22;6249;52.128;9.986;2022-11-20T18:49:22;1.70;99.90
12370;DHT22;6249;52.128;9.986;2022-11-20T18:52:43;1.60;99.90
12370;DHT22;6249;52.128;9.986;2022-11-20T18:56:05;1.60;99.90
12370;DHT22;6249;52.128;9.986;2022-11-20T18:59:28;1.60;99.90
12370;DHT22;6249;52.128;9.986;2022-11-20T19:02:54;1.80;99.90
12370;DHT22;6249;52.128;9.986;2022-11-20T19:06:17;1.90;99.90
12370;DHT22;6249;52.128;9.986;2022-11-20T19:09:43;1.90;99.90
12370;DHT22;6249;52.128;9.986;2022-11-20T19:13:03;1.80;99.90
12370;DHT22;6249;52.128;9.986;2022-11-20T19:16:24;1.80;99.90
12370;DHT22;6249;52.128;9.986;2022-11-20T19:19:45;1.90;99.90
12370;DHT22;6249;52.128;9.986;2022-11-20T19:23:09;1.90;99.90
12370;DHT22;6249;52.128;9.986;2022-11-20T19:26:36;2.00;99.90
12370;DHT22;6249;52.128;9.986;2022-11-20T19:29:57;2.10;99.90
12370;DHT22;6249;52.128;9.986;2022-11-20T19:33:22;2.10;99.90
12370;DHT22;6249;52.128;9.986;2022-11-20T19:36:42;2.00;99.90
12370;DHT22;6249;52.128;9.986;2022-11-20T19:40:03;2.00;99.90
12370;DHT22;6249;52.128;9.986;2022-11-20T19:43:24;2.00;99.90
12370;DHT22;6249;52.128;9.986;2022-11-20T19:46:45;2.20;99.90
12370;DHT22;6249;52.128;9.986;2022-11-20T19:50:06;2.10;99.90
12370;DHT22;6249;52.128;9.986;2022-11-20T19:53:29;2.00;99.90
12370;DHT22;6249;52.128;9.986;2022-11-20T19:56:52;1.90;99.90
12370;DHT22;6249;52.128;9.986;2022-11-20T20:00:14;1.90;99.90
12370;DHT22;6249;52.128;9.986;2022-11-20T20:03:35;1.70;99.90
12370;DHT22;6249;52.128;9.986;2022-11-20T20:06:56;1.70;99.90
12370;DHT22;6249;52.128;9.986;2022-11-20T20:10:22;1.80;99.90
12370;DHT22;6249;52.128;9.986;2022-11-20T20:13:43;1.90;99.90
12370;DHT22;6249;52.128;9.986;2022-11-20T20:17:04;2.00;99.90
12370;DHT22;6249;52.128;9.986;2022-11-20T20:20:27;2.00;99.90
12370;DHT22;6249;52.128;9.986;2022-11-20T20:23:54;2.00;99.90
12370;DHT22;6249;52.128;9.986;2022-11-20T20:27:18;2.00;99.90
12370;DHT22;6249;52.128;9.986;2022-11-20T20:30:41;1.90;99.90
12370;DHT22;6249;52.128;9.986;2022-11-20T20:34:05;2.00;99.90
12370;DHT22;6249;52.128;9.986;2022-11-20T20:37:26;2.10;99.90
12370;DHT22;6249;52.128;9.986;2022-11-20T20:40:47;2.20;99.90
12370;DHT22;6249;52.128;9.986;2022-11-20T20:44:14;2.30;99.90
12370;DHT22;6249;52.128;9.986;2022-11-20T20:47:55;2.20;99.90
12370;DHT22;6249;52.128;9.986;2022-11-20T20:51:16;2.10;99.90
12370;DHT22;6249;52.128;9.986;2022-11-20T20:54:37;2.20;99.90
12370;DHT22;6249;52.128;9.986;2022-11-20T20:57:57;2.10;99.90
12370;DHT22;6249;52.128;9.986;2022-11-20T21:01:19;2.10;99.90
12370;DHT22;6249;52.128;9.986;2022-11-20T21:04:40;2.00;99.90
12370;DHT22;6249;52.128;9.986;2022-11-20T21:08:00;2.10;99.90
12370;DHT22;6249;52.128;9.986;2022-11-20T21:11:44;2.10;99.90
12370;DHT22;6249;52.128;9.986;2022-11-20T21:15:05;2.30;99.90
12370;DHT22;6249;52.128;9.986;2022-11-20T21:18:26;2.10;99.90
12370;DHT22;6249;52.128;9.986;2022-11-20T21:21:47;1.90;99.90
12370;DHT22;6249;52.128;9.986;2022-11-20T21:25:19;1.80;99.90
12370;DHT22;6249;52.128;9.986;2022-11-20T21:28:42;1.80;99.90
12370;DHT22;6249;52.128;9.986;2022-11-20T21:32:05;1.70;99.90
12370;DHT22;6249;52.128;9.986;2022-11-20T21:35:31;1.80;99.90
12370;DHT22;6249;52.128;9.986;2022-11-20T21:38:57;1.70;99.90
12370;DHT22;6249;52.128;9.986;2022-11-20T21:42:18;1.80;99.90
12370;DHT22;6249;52.128;9.986;2022-11-20T21:45:39;1.70;99.90
12370;DHT22;6249;52.128;9.986;2022-11-20T21:49:02;1.80;99.90
12370;DHT22;6249;52.128;9.986;2022-11-20T21:52:25;1.80;99.90
12370;DHT22;6249;52.128;9.986;2022-11-20T21:55:54;1.50;99.90
12370;DHT22;6249;52.128;9.986;2022-11-20T21:59:17;1.50;99.90
12370;DHT22;6249;52.128;9.986;2022-11-20T22:02:38;1.50;99.90
12370;DHT22;6249;52.128;9.986;2022-11-20T22:06:03;1.60;99.90
12370;DHT22;6249;52.128;9.986;2022-11-20T22:09:23;1.60;99.90
12370;DHT22;6249;52.128;9.986;2022-11-20T22:12:44;1.50;99.90
12370;DHT22;6249;52.128;9.986;2022-11-20T22:16:07;1.50;99.90
12370;DHT22;6249;52.128;9.986;2022-11-20T22:19:30;1.60;99.90
12370;DHT22;6249;52.128;9.986;2022-11-20T22:22:51;1.50;99.90
12370;DHT22;6249;52.128;9.986;2022-11-20T22:26:23;1.50;99.90
12370;DHT22;6249;52.128;9.986;2022-11-20T22:29:44;1.40;99.90
12370;DHT22;6249;52.128;9.986;2022-11-20T22:33:06;1.40;99.90
12370;DHT22;6249;52.128;9.986;2022-11-20T22:36:30;1.50;99.90
12370;DHT22;6249;52.128;9.986;2022-11-20T22:39:54;1.60;99.90
12370;DHT22;6249;52.128;9.986;2022-11-20T22:43:14;1.60;99.90
12370;DHT22;6249;52.128;9.986;2022-11-20T22:46:37;1.60;99.90
12370;DHT22;6249;52.128;9.986;2022-11-20T22:49:57;1.60;99.90
12370;DHT22;6249;52.128;9.986;2022-11-20T22:53:18;1.60;99.90
12370;DHT22;6249;52.128;9.986;2022-11-20T22:56:39;1.50;99.90
12370;DHT22;6249;52.128;9.986;2022-11-20T23:00:03;1.60;99.90
12370;DHT22;6249;52.128;9.986;2022-11-20T23:03:24;1.70;99.90
12370;DHT22;6249;52.128;9.986;2022-11-20T23:06:47;1.50;99.90
12370;DHT22;6249;52.128;9.986;2022-11-20T23:10:09;1.50;99.90
12370;DHT22;6249;52.128;9.986;2022-11-20T23:13:33;1.50;99.90